Time;durP1;ratioP1;P1;durP2;ratioP2;P2;SDS_P1;SDS_P2;PMS_P1;PMS_P2;Temp;Humidity;BMP_temperature;BMP_pressure;BME280_temperature;BME280_humidity;BME280_pressure;Samples;Min_cycle;Max_cycle;Signal;HPM_P1;HPM_P2
2024/01/04 00:02:13;;;;;;;4.25;1.92;;;;;;;;;;5073393;28;20025;-76
2024/01/04 00:04:40;;;;;;;4.55;2.58;;;;;;;;;;5074828;28;20043;-76
2024/01/04 00:07:05;;;;;;;6.40;3.00;;;;;;;;;;5075395;28;20021;-76
2024/01/04 00:09:31;;;;;;;4.75;1.85;;;;;;;;;;5074632;28;20021;-76
2024/01/04 00:11:56;;;;;;;4.85;2.33;;;;;;;;;;5074589;28;20028;-76
2024/01/04 00:14:21;;;;;;;3.90;2.00;;;;;;;;;;5073752;28;20031;-76
2024/01/04 00:16:47;;;;;;;4.32;2.03;;;;;;;;;;5056438;28;20113;-76
2024/01/04 00:19:12;;;;;;;2.70;1.98;;;;;;;;;;5074098;28;20378;-76
2024/01/04 00:21:37;;;;;;;2.85;1.55;;;;;;;;;;5040428;28;20028;-76
2024/01/04 00:24:03;;;;;;;2.88;1.60;;;;;;;;;;5074722;28;20047;-76
2024/01/04 00:26:29;;;;;;;2.83;1.92;;;;;;;;;;5074439;28;20038;-71
2024/01/04 00:28:54;;;;;;;4.70;2.17;;;;;;;;;;5056284;28;20056;-71
2024/01/04 00:31:19;;;;;;;2.60;1.88;;;;;;;;;;5074328;28;20520;-71
2024/01/04 00:33:45;;;;;;;3.20;1.83;;;;;;;;;;5074207;28;20046;-72
2024/01/04 00:36:11;;;;;;;3.05;1.88;;;;;;;;;;5072833;28;20032;-71
2024/01/04 00:38:36;;;;;;;3.33;1.92;;;;;;;;;;5074111;28;20463;-70
2024/01/04 00:41:02;;;;;;;3.70;2.05;;;;;;;;;;5072801;28;20128;-70
2024/01/04 00:43:27;;;;;;;3.70;2.42;;;;;;;;;;5073246;28;20068;-72
2024/01/04 00:45:52;;;;;;;2.80;1.92;;;;;;;;;;5056001;28;20033;-72
2024/01/04 00:48:18;;;;;;;4.25;1.92;;;;;;;;;;5074381;28;20039;-72
2024/01/04 00:50:43;;;;;;;2.97;1.88;;;;;;;;;;5074031;28;20527;-72
2024/01/04 00:53:09;;;;;;;3.28;1.88;;;;;;;;;;5073772;28;20027;-72
2024/01/04 00:55:34;;;;;;;1.90;1.40;;;;;;;;;;5056211;28;20032;-72
2024/01/04 00:58:03;;;;;;;3.92;1.83;;;;;;;;;;5074079;28;20363;-72
2024/01/04 01:00:29;;;;;;;1.95;1.42;;;;;;;;;;5073666;28;20024;-72
2024/01/04 01:02:55;;;;;;;2.38;1.80;;;;;;;;;;5074408;28;20040;-75
2024/01/04 01:05:20;;;;;;;2.78;1.77;;;;;;;;;;5056048;28;20478;-75
2024/01/04 01:07:46;;;;;;;1.92;1.52;;;;;;;;;;5073511;28;20033;-75
2024/01/04 01:10:11;;;;;;;2.45;1.77;;;;;;;;;;5055353;28;20485;-75
2024/01/04 01:12:37;;;;;;;1.52;1.35;;;;;;;;;;5073031;28;20150;-75
2024/01/04 01:15:02;;;;;;;2.72;2.00;;;;;;;;;;5055663;28;20439;-75
2024/01/04 01:17:28;;;;;;;2.15;1.58;;;;;;;;;;5055639;28;20375;-75
2024/01/04 01:19:54;;;;;;;2.95;1.50;;;;;;;;;;5074247;28;20107;-75
2024/01/04 01:22:19;;;;;;;2.45;1.70;;;;;;;;;;5073914;28;20025;-75
2024/01/04 01:24:45;;;;;;;3.15;1.65;;;;;;;;;;5057645;28;20047;-75
2024/01/04 01:27:10;;;;;;;4.03;1.80;;;;;;;;;;5080842;28;20024;-76
2024/01/04 01:29:36;;;;;;;1.92;1.48;;;;;;;;;;5061633;28;20048;-75
2024/01/04 01:32:01;;;;;;;2.47;1.52;;;;;;;;;;5061654;28;20028;-76
2024/01/04 01:34:26;;;;;;;1.85;1.38;;;;;;;;;;5076994;28;20024;-76
2024/01/04 01:36:52;;;;;;;3.00;1.67;;;;;;;;;;5078044;28;20024;-75
2024/01/04 01:39:19;;;;;;;2.15;1.38;;;;;;;;;;5078082;28;20032;-75
2024/01/04 01:41:44;;;;;;;1.67;1.50;;;;;;;;;;5077901;28;20040;-75
2024/01/04 01:44:10;;;;;;;1.70;1.38;;;;;;;;;;5075834;28;20029;-75
2024/01/04 01:46:36;;;;;;;2.55;1.60;;;;;;;;;;5077291;28;20074;-75
2024/01/04 01:49:02;;;;;;;2.45;1.80;;;;;;;;;;5059860;28;20024;-75
2024/01/04 01:51:27;;;;;;;4.60;1.90;;;;;;;;;;5077812;28;20036;-75
2024/01/04 01:53:53;;;;;;;1.83;1.55;;;;;;;;;;5077796;28;20028;-76
2024/01/04 01:56:18;;;;;;;2.25;1.40;;;;;;;;;;5059582;28;20033;-76
2024/01/04 01:58:44;;;;;;;2.22;1.42;;;;;;;;;;5022769;28;20036;-75
2024/01/04 02:01:10;;;;;;;3.17;1.65;;;;;;;;;;5039186;28;20032;-76
2024/01/04 02:03:35;;;;;;;1.52;1.42;;;;;;;;;;5057682;28;20080;-75
2024/01/04 02:06:00;;;;;;;1.50;1.20;;;;;;;;;;5057681;28;20040;-75
2024/01/04 02:08:26;;;;;;;1.73;1.25;;;;;;;;;;5039204;28;20406;-74
2024/01/04 02:10:51;;;;;;;2.90;1.38;;;;;;;;;;5057032;28;20037;-75
2024/01/04 02:13:16;;;;;;;1.80;1.10;;;;;;;;;;5039008;28;20119;-76
2024/01/04 02:15:42;;;;;;;1.60;1.30;;;;;;;;;;5039201;28;20063;-75
2024/01/04 02:18:07;;;;;;;1.63;1.27;;;;;;;;;;5091913;22;20056;-74
2024/01/04 02:20:34;;;;;;;2.00;1.08;;;;;;;;;;5055411;23;20046;-76
2024/01/04 02:22:59;;;;;;;1.55;0.90;;;;;;;;;;5036647;28;20032;-76
2024/01/04 02:25:25;;;;;;;1.38;1.27;;;;;;;;;;5037434;28;20026;-76
2024/01/04 02:27:50;;;;;;;0.95;0.88;;;;;;;;;;5019252;28;20029;-73
2024/01/04 02:30:16;;;;;;;2.13;0.98;;;;;;;;;;5019152;28;20037;-73
2024/01/04 02:32:41;;;;;;;1.23;1.13;;;;;;;;;;5036575;28;20044;-73
2024/01/04 02:35:07;;;;;;;1.30;0.98;;;;;;;;;;5017658;28;20041;-73
2024/01/04 02:37:32;;;;;;;1.17;0.93;;;;;;;;;;5017828;28;20032;-74
2024/01/04 02:40:00;;;;;;;0.98;0.80;;;;;;;;;;5036393;28;20065;-74
2024/01/04 02:42:25;;;;;;;1.50;1.13;;;;;;;;;;5036720;28;20038;-73
2024/01/04 02:44:50;;;;;;;0.63;0.63;;;;;;;;;;5036337;28;20026;-74
2024/01/04 02:47:16;;;;;;;2.45;1.10;;;;;;;;;;5018907;28;20395;-72
2024/01/04 02:49:41;;;;;;;1.20;1.10;;;;;;;;;;5018741;28;20033;-73
2024/01/04 02:52:06;;;;;;;1.00;0.80;;;;;;;;;;5036600;28;20025;-73
2024/01/04 02:54:32;;;;;;;1.05;0.80;;;;;;;;;;5036533;28;20021;-72
2024/01/04 02:56:58;;;;;;;0.90;0.70;;;;;;;;;;5036196;28;20029;-71
2024/01/04 02:59:24;;;;;;;1.58;0.77;;;;;;;;;;5036668;28;20333;-71
2024/01/04 03:01:49;;;;;;;1.13;1.00;;;;;;;;;;5002407;28;20065;-71
2024/01/04 03:04:15;;;;;;;2.10;0.80;;;;;;;;;;5036189;28;20148;-71
2024/01/04 03:06:41;;;;;;;1.98;0.73;;;;;;;;;;5035853;28;20036;-71
2024/01/04 03:09:06;;;;;;;1.65;0.77;;;;;;;;;;5036130;28;20032;-71
2024/01/04 03:11:32;;;;;;;1.08;0.80;;;;;;;;;;5017962;28;20387;-71
2024/01/04 03:13:58;;;;;;;1.23;0.75;;;;;;;;;;5036185;28;20029;-71
2024/01/04 03:16:23;;;;;;;1.70;0.70;;;;;;;;;;5036092;28;20033;-71
2024/01/04 03:18:48;;;;;;;0.88;0.80;;;;;;;;;;5035865;28;20029;-72
2024/01/04 03:21:14;;;;;;;1.52;0.98;;;;;;;;;;5035013;28;20048;-72
2024/01/04 03:23:40;;;;;;;1.00;0.70;;;;;;;;;;5055526;28;20033;-72
2024/01/04 03:26:05;;;;;;;0.82;0.80;;;;;;;;;;5055669;28;20044;-72
2024/01/04 03:28:32;;;;;;;0.52;0.50;;;;;;;;;;5037859;28;20040;-72
2024/01/04 03:30:57;;;;;;;1.10;0.68;;;;;;;;;;5055539;28;20044;-72
2024/01/04 03:33:22;;;;;;;1.92;0.70;;;;;;;;;;5038070;28;20017;-71
2024/01/04 03:35:48;;;;;;;0.70;0.70;;;;;;;;;;5055510;28;20025;-71
2024/01/04 03:38:13;;;;;;;1.85;0.60;;;;;;;;;;5055396;28;20340;-71
2024/01/04 03:40:38;;;;;;;0.57;0.57;;;;;;;;;;5055466;28;20068;-72
2024/01/04 03:43:04;;;;;;;1.30;0.55;;;;;;;;;;5055503;28;20037;-72
2024/01/04 03:45:32;;;;;;;0.60;0.50;;;;;;;;;;5055046;28;20075;-75
2024/01/04 03:47:59;;;;;;;0.70;0.60;;;;;;;;;;5055775;28;20037;-76
2024/01/04 03:50:24;;;;;;;0.70;0.70;;;;;;;;;;5055518;28;20129;-76
2024/01/04 03:52:50;;;;;;;0.73;0.47;;;;;;;;;;5054879;28;20112;-75
2024/01/04 03:55:16;;;;;;;0.80;0.70;;;;;;;;;;5037003;28;20033;-75
2024/01/04 03:57:44;;;;;;;0.60;0.60;;;;;;;;;;5054795;28;20021;-75
2024/01/04 04:00:10;;;;;;;0.90;0.80;;;;;;;;;;5037325;28;20086;-76
2024/01/04 04:02:38;;;;;;;2.72;0.98;;;;;;;;;;5055560;28;20029;-76
2024/01/04 04:05:04;;;;;;;0.80;0.80;;;;;;;;;;5054761;28;20040;-75
2024/01/04 04:07:30;;;;;;;1.65;0.70;;;;;;;;;;5054511;28;20037;-76
2024/01/04 04:09:55;;;;;;;1.05;0.70;;;;;;;;;;5034649;28;20036;-75
2024/01/04 04:12:21;;;;;;;0.70;0.70;;;;;;;;;;5054549;28;20028;-75
2024/01/04 04:14:46;;;;;;;0.82;0.55;;;;;;;;;;5054831;28;20021;-75
2024/01/04 04:17:14;;;;;;;0.80;0.80;;;;;;;;;;5037190;28;20359;-75
2024/01/04 04:19:39;;;;;;;1.33;0.70;;;;;;;;;;5055158;28;20033;-75
2024/01/04 04:22:04;;;;;;;2.05;1.10;;;;;;;;;;5054437;28;20020;-73
2024/01/04 04:24:31;;;;;;;1.52;0.82;;;;;;;;;;5036451;28;20560;-73
2024/01/04 04:26:56;;;;;;;1.17;1.08;;;;;;;;;;5054287;28;20079;-73
2024/01/04 04:29:22;;;;;;;1.25;0.47;;;;;;;;;;5054572;28;20032;-72
2024/01/04 04:31:48;;;;;;;1.55;0.93;;;;;;;;;;5054204;28;20115;-73
2024/01/04 04:34:13;;;;;;;2.88;0.80;;;;;;;;;;5054207;28;20061;-74
2024/01/04 04:36:40;;;;;;;2.85;1.40;;;;;;;;;;5053971;28;20029;-74
2024/01/04 04:39:07;;;;;;;0.90;0.47;;;;;;;;;;5054365;28;20037;-73
2024/01/04 04:41:32;;;;;;;1.85;1.00;;;;;;;;;;5054252;28;20086;-68
2024/01/04 04:43:58;;;;;;;1.13;0.80;;;;;;;;;;5054300;28;20032;-75
2024/01/04 04:46:23;;;;;;;2.95;0.60;;;;;;;;;;5054114;28;20467;-76
2024/01/04 04:48:54;;;;;;;1.27;0.90;;;;;;;;;;5053872;28;20033;-77
2024/01/04 04:51:20;;;;;;;1.45;0.60;;;;;;;;;;5053462;28;20025;-76
2024/01/04 04:53:45;;;;;;;1.98;1.02;;;;;;;;;;5018479;28;20021;-76
2024/01/04 04:56:11;;;;;;;2.65;1.10;;;;;;;;;;5052899;28;20033;-76
2024/01/04 04:58:36;;;;;;;1.55;0.77;;;;;;;;;;5052821;28;20029;-76
2024/01/04 05:01:01;;;;;;;3.63;0.90;;;;;;;;;;5052770;28;20013;-76
2024/01/04 05:03:28;;;;;;;0.70;0.60;;;;;;;;;;5052910;28;20036;-74
2024/01/04 05:05:53;;;;;;;1.08;0.90;;;;;;;;;;5034576;28;20055;-67
2024/01/04 05:08:19;;;;;;;1.00;0.90;;;;;;;;;;5053160;28;20033;-67
2024/01/04 05:10:44;;;;;;;1.20;0.73;;;;;;;;;;5053944;28;20086;-63
2024/01/04 05:13:09;;;;;;;1.02;0.93;;;;;;;;;;5036063;28;20028;-65
2024/01/04 05:15:35;;;;;;;0.93;0.93;;;;;;;;;;5036225;28;20131;-65
2024/01/04 05:18:00;;;;;;;1.02;1.00;;;;;;;;;;5053646;28;20077;-64
2024/01/04 05:20:25;;;;;;;1.00;0.70;;;;;;;;;;5053438;28;20119;-64
2024/01/04 05:22:51;;;;;;;0.82;0.65;;;;;;;;;;5053889;28;20120;-65
2024/01/04 05:25:16;;;;;;;2.00;1.27;;;;;;;;;;5053784;28;20107;-65
2024/01/04 05:27:41;;;;;;;1.00;0.95;;;;;;;;;;5053259;28;20040;-75
2024/01/04 05:30:09;;;;;;;1.55;0.88;;;;;;;;;;5053602;28;20028;-75
2024/01/04 05:32:35;;;;;;;0.60;0.60;;;;;;;;;;5019922;28;20115;-76
2024/01/04 05:35:00;;;;;;;0.90;0.77;;;;;;;;;;5053599;28;20060;-77
2024/01/04 05:37:26;;;;;;;1.63;0.90;;;;;;;;;;5053862;28;20075;-77
2024/01/04 05:39:51;;;;;;;0.93;0.93;;;;;;;;;;5053421;28;20053;-75
2024/01/04 05:42:16;;;;;;;1.38;1.08;;;;;;;;;;5053317;28;20017;-75
2024/01/04 05:44:42;;;;;;;1.55;0.88;;;;;;;;;;5054049;28;20044;-75
2024/01/04 05:47:07;;;;;;;1.17;0.98;;;;;;;;;;5053820;28;20033;-75
2024/01/04 05:49:33;;;;;;;3.38;1.30;;;;;;;;;;5053292;28;20037;-76
2024/01/04 05:51:58;;;;;;;2.17;1.25;;;;;;;;;;5053385;28;20025;-75
2024/01/04 05:54:24;;;;;;;2.42;1.52;;;;;;;;;;5053637;28;20017;-76
2024/01/04 05:56:49;;;;;;;1.92;1.15;;;;;;;;;;5052979;28;20033;-75
2024/01/04 05:59:15;;;;;;;2.30;1.65;;;;;;;;;;5053244;28;20070;-75
2024/01/04 06:01:40;;;;;;;0.85;0.80;;;;;;;;;;5053658;28;20036;-75
2024/01/04 06:04:06;;;;;;;1.38;1.08;;;;;;;;;;5053642;28;20029;-75
2024/01/04 06:06:31;;;;;;;0.80;0.80;;;;;;;;;;5035724;28;20108;-75
2024/01/04 06:08:57;;;;;;;2.42;0.90;;;;;;;;;;5053107;28;20033;-75
2024/01/04 06:11:22;;;;;;;1.15;0.90;;;;;;;;;;5054400;28;20037;-75
2024/01/04 06:13:48;;;;;;;0.98;0.80;;;;;;;;;;5057082;28;20021;-74
2024/01/04 06:16:13;;;;;;;3.40;0.95;;;;;;;;;;5057471;28;20375;-74
2024/01/04 06:18:39;;;;;;;0.80;0.77;;;;;;;;;;5056684;28;20360;-75
2024/01/04 06:21:07;;;;;;;0.70;0.70;;;;;;;;;;5038385;28;20049;-74
2024/01/04 06:23:32;;;;;;;1.52;0.73;;;;;;;;;;5038909;28;20032;-74
2024/01/04 06:25:58;;;;;;;0.95;0.70;;;;;;;;;;5057447;28;20120;-74
2024/01/04 06:28:23;;;;;;;0.65;0.65;;;;;;;;;;5056843;28;20071;-74
2024/01/04 06:30:49;;;;;;;0.60;0.60;;;;;;;;;;5056729;28;20459;-74
2024/01/04 06:33:14;;;;;;;0.63;0.63;;;;;;;;;;5038272;28;20029;-74
2024/01/04 06:35:40;;;;;;;0.60;0.60;;;;;;;;;;5037436;28;20056;-76
2024/01/04 06:38:08;;;;;;;0.60;0.60;;;;;;;;;;5037494;28;20545;-75
2024/01/04 06:40:42;;;;;;;0.85;0.73;;;;;;;;;;5054903;28;20029;-75
2024/01/04 06:43:08;;;;;;;0.80;0.60;;;;;;;;;;5055401;28;20554;-74
2024/01/04 06:45:34;;;;;;;1.00;0.60;;;;;;;;;;5055961;28;20040;-74
2024/01/04 06:47:59;;;;;;;2.60;0.70;;;;;;;;;;5056049;28;20033;-74
2024/01/04 06:50:24;;;;;;;1.10;0.70;;;;;;;;;;5021686;28;20089;-75
2024/01/04 06:52:50;;;;;;;2.08;0.98;;;;;;;;;;5056419;28;20071;-75
2024/01/04 06:55:15;;;;;;;1.80;1.13;;;;;;;;;;5056334;28;20025;-74
2024/01/04 06:57:41;;;;;;;1.20;1.00;;;;;;;;;;5056032;28;20017;-75
2024/01/04 07:00:10;;;;;;;1.38;1.08;;;;;;;;;;5056544;28;20040;-75
2024/01/04 07:02:36;;;;;;;0.85;0.85;;;;;;;;;;5056530;28;20029;-76
2024/01/04 07:05:05;;;;;;;1.30;1.15;;;;;;;;;;5055719;28;20386;-75
2024/01/04 07:07:31;;;;;;;2.03;1.17;;;;;;;;;;5056487;28;20029;-75
2024/01/04 07:09:56;;;;;;;1.48;1.27;;;;;;;;;;5055663;28;20760;-75
2024/01/04 07:12:22;;;;;;;1.90;1.63;;;;;;;;;;5056122;28;20033;-75
2024/01/04 07:14:47;;;;;;;1.38;1.27;;;;;;;;;;5037773;28;20029;-75
2024/01/04 07:17:15;;;;;;;1.52;1.23;;;;;;;;;;5055585;28;20387;-75
2024/01/04 07:19:41;;;;;;;1.67;1.58;;;;;;;;;;5037532;28;20040;-75
2024/01/04 07:22:07;;;;;;;1.88;1.55;;;;;;;;;;5055222;28;20032;-75
2024/01/04 07:24:32;;;;;;;1.92;1.60;;;;;;;;;;5055974;28;20025;-75
2024/01/04 07:26:58;;;;;;;2.83;1.70;;;;;;;;;;5055431;28;20505;-75
2024/01/04 07:29:23;;;;;;;1.80;1.70;;;;;;;;;;5037572;28;20374;-74
2024/01/04 07:31:49;;;;;;;2.67;1.90;;;;;;;;;;5095482;22;20068;-74
2024/01/04 07:34:15;;;;;;;1.85;1.65;;;;;;;;;;5072859;28;20482;-75
2024/01/04 07:36:40;;;;;;;1.70;1.60;;;;;;;;;;5056952;28;20035;-75
2024/01/04 07:39:07;;;;;;;2.10;1.90;;;;;;;;;;5057540;28;20029;-75
2024/01/04 07:41:32;;;;;;;2.65;2.45;;;;;;;;;;5075687;28;20075;-75
2024/01/04 07:43:57;;;;;;;3.13;1.80;;;;;;;;;;5057852;28;20067;-75
2024/01/04 07:46:23;;;;;;;3.53;1.73;;;;;;;;;;5075118;28;20025;-74
2024/01/04 07:48:48;;;;;;;1.98;1.73;;;;;;;;;;5075588;28;20060;-74
2024/01/04 07:51:13;;;;;;;2.03;1.83;;;;;;;;;;5075224;28;20043;-75
2024/01/04 07:53:40;;;;;;;2.20;1.65;;;;;;;;;;5075481;28;20033;-75
2024/01/04 07:56:05;;;;;;;1.48;1.38;;;;;;;;;;5075371;28;20039;-75
2024/01/04 07:58:31;;;;;;;2.17;1.65;;;;;;;;;;5057770;28;20111;-75
2024/01/04 08:00:56;;;;;;;2.10;1.73;;;;;;;;;;5073278;28;20507;-75
2024/01/04 08:03:22;;;;;;;1.73;1.60;;;;;;;;;;5075033;28;20036;-75
2024/01/04 08:05:47;;;;;;;1.98;1.67;;;;;;;;;;5057934;28;20107;-75
2024/01/04 08:08:12;;;;;;;3.17;1.90;;;;;;;;;;5057549;28;20038;-75
2024/01/04 08:10:38;;;;;;;2.25;1.77;;;;;;;;;;5057453;28;20051;-75
2024/01/04 08:13:03;;;;;;;2.28;1.73;;;;;;;;;;5074737;28;20386;-75
2024/01/04 08:15:33;;;;;;;2.30;1.65;;;;;;;;;;5056791;28;20033;-74
2024/01/04 08:17:58;;;;;;;1.93;1.67;;;;;;;;;;5057118;28;20077;-75
2024/01/04 08:20:24;;;;;;;2.67;1.83;;;;;;;;;;5073758;28;20146;-76
2024/01/04 08:22:50;;;;;;;1.88;1.77;;;;;;;;;;5074894;28;20036;-75
2024/01/04 08:25:15;;;;;;;2.33;1.75;;;;;;;;;;5074648;28;20375;-75
2024/01/04 08:27:41;;;;;;;3.00;1.73;;;;;;;;;;5074715;28;20163;-75
2024/01/04 08:30:06;;;;;;;3.58;1.80;;;;;;;;;;5074370;28;20039;-75
2024/01/04 08:32:32;;;;;;;2.13;1.75;;;;;;;;;;5074223;28;20040;-75
2024/01/04 08:34:57;;;;;;;2.50;1.65;;;;;;;;;;5073769;28;20025;-75
2024/01/04 08:37:23;;;;;;;1.85;1.52;;;;;;;;;;5074257;28;20032;-76
2024/01/04 08:39:49;;;;;;;2.05;1.77;;;;;;;;;;5074092;28;20024;-75
2024/01/04 08:42:15;;;;;;;2.42;1.75;;;;;;;;;;5074695;28;20056;-75
2024/01/04 08:44:41;;;;;;;3.40;2.40;;;;;;;;;;5056304;28;20048;-75
2024/01/04 08:47:06;;;;;;;3.10;2.05;;;;;;;;;;5056665;28;20035;-75
2024/01/04 08:49:32;;;;;;;3.13;2.17;;;;;;;;;;5073923;28;20116;-75
2024/01/04 08:51:57;;;;;;;3.60;2.63;;;;;;;;;;5073822;28;20020;-75
2024/01/04 08:54:23;;;;;;;2.38;2.08;;;;;;;;;;5074226;28;20507;-75
2024/01/04 08:56:48;;;;;;;2.60;2.17;;;;;;;;;;5074288;28;20031;-75
2024/01/04 08:59:15;;;;;;;3.22;2.17;;;;;;;;;;5074464;28;20031;-74
2024/01/04 09:01:41;;;;;;;11.48;7.72;;;;;;;;;;5073813;28;20470;-75
2024/01/04 09:04:07;;;;;;;2.70;2.40;;;;;;;;;;5055869;28;20035;-75
2024/01/04 09:06:33;;;;;;;4.65;3.38;;;;;;;;;;5074490;28;20043;-75
2024/01/04 09:08:59;;;;;;;4.72;3.55;;;;;;;;;;5074274;28;20044;-75
2024/01/04 09:11:27;;;;;;;5.78;2.70;;;;;;;;;;5055751;28;20466;-75
2024/01/04 09:13:53;;;;;;;3.60;2.28;;;;;;;;;;5073907;28;20182;-75
2024/01/04 09:16:18;;;;;;;2.22;1.98;;;;;;;;;;5074365;28;20048;-75
2024/01/04 09:18:44;;;;;;;3.58;2.28;;;;;;;;;;5073999;28;20363;-75
2024/01/04 09:21:10;;;;;;;5.25;2.13;;;;;;;;;;5073824;28;20032;-75
2024/01/04 09:23:35;;;;;;;3.13;2.40;;;;;;;;;;5073639;28;20082;-75
2024/01/04 09:26:08;;;;;;;2.33;1.58;;;;;;;;;;5073791;28;20040;-75
2024/01/04 09:28:34;;;;;;;2.00;1.83;;;;;;;;;;5073655;28;20111;-74
2024/01/04 09:30:59;;;;;;;3.05;1.80;;;;;;;;;;5073478;28;20117;-74
2024/01/04 09:33:25;;;;;;;2.10;1.88;;;;;;;;;;5073285;28;20036;-75
2024/01/04 09:35:50;;;;;;;2.97;1.90;;;;;;;;;;5073416;28;20435;-75
2024/01/04 09:38:15;;;;;;;2.30;1.63;;;;;;;;;;5055795;28;20051;-75
2024/01/04 09:40:41;;;;;;;3.13;1.63;;;;;;;;;;5055483;28;20028;-74
2024/01/04 09:43:07;;;;;;;2.95;2.05;;;;;;;;;;5073513;28;20454;-75
2024/01/04 09:45:35;;;;;;;2.55;2.08;;;;;;;;;;5074776;28;20032;-75
2024/01/04 09:48:04;;;;;;;5.07;1.58;;;;;;;;;;5059402;28;20468;-75
2024/01/04 09:50:29;;;;;;;2.20;1.77;;;;;;;;;;5077220;28;20021;-74
2024/01/04 09:52:56;;;;;;;2.42;1.65;;;;;;;;;;5059880;28;20024;-75
2024/01/04 09:55:24;;;;;;;3.72;1.98;;;;;;;;;;5077840;28;20067;-75
2024/01/04 09:57:51;;;;;;;2.17;1.77;;;;;;;;;;5077644;28;20031;-75
2024/01/04 10:00:16;;;;;;;2.08;1.80;;;;;;;;;;5077683;28;20059;-75
2024/01/04 10:02:42;;;;;;;1.88;1.70;;;;;;;;;;5077297;28;20454;-74
2024/01/04 10:05:18;;;;;;;2.05;1.10;;;;;;;;;;5077422;28;20024;-75
2024/01/04 10:08:03;;;;;;;3.15;1.55;;;;;;;;;;5077299;28;20153;-75
2024/01/04 10:10:30;;;;;;;1.92;1.65;;;;;;;;;;5076809;28;20050;-75
2024/01/04 10:12:56;;;;;;;2.13;1.60;;;;;;;;;;5076874;28;20105;-75
2024/01/04 10:15:21;;;;;;;2.08;1.88;;;;;;;;;;5077134;28;20083;-74
2024/01/04 10:17:47;;;;;;;2.80;1.75;;;;;;;;;;5077058;28;20033;-75
2024/01/04 10:20:13;;;;;;;2.45;1.70;;;;;;;;;;5076860;28;20474;-74
2024/01/04 10:22:40;;;;;;;2.88;1.92;;;;;;;;;;5077147;28;20028;-75
2024/01/04 10:25:06;;;;;;;1.85;1.75;;;;;;;;;;5076876;28;20085;-75
2024/01/04 10:27:32;;;;;;;2.78;1.60;;;;;;;;;;5076870;28;20094;-74
2024/01/04 10:30:02;;;;;;;3.10;2.08;;;;;;;;;;5076948;28;20454;-75
2024/01/04 10:32:28;;;;;;;2.90;1.88;;;;;;;;;;5076764;28;20051;-75
2024/01/04 10:35:01;;;;;;;2.35;1.80;;;;;;;;;;5058732;28;20036;-75
2024/01/04 10:37:27;;;;;;;3.97;2.22;;;;;;;;;;5076658;28;20081;-74
2024/01/04 10:39:56;;;;;;;4.63;2.67;;;;;;;;;;5076511;28;20042;-75
2024/01/04 10:42:22;;;;;;;3.63;2.55;;;;;;;;;;5076849;28;20036;-74
2024/01/04 10:44:52;;;;;;;3.72;2.70;;;;;;;;;;5076605;28;20039;-75
2024/01/04 10:47:18;;;;;;;2.33;1.38;;;;;;;;;;5076214;28;20040;-75
2024/01/04 10:49:45;;;;;;;5.43;2.67;;;;;;;;;;5076390;28;20030;-75
2024/01/04 10:52:13;;;;;;;5.70;3.03;;;;;;;;;;5076652;28;20032;-75
2024/01/04 10:54:41;;;;;;;4.53;2.75;;;;;;;;;;5076343;28;20028;-75
2024/01/04 10:57:08;;;;;;;4.18;2.70;;;;;;;;;;5075593;28;20048;-75
2024/01/04 10:59:34;;;;;;;3.05;2.03;;;;;;;;;;5075637;28;20100;-75
2024/01/04 11:02:00;;;;;;;4.25;2.35;;;;;;;;;;5076800;28;20427;-75
2024/01/04 11:04:25;;;;;;;2.00;1.88;;;;;;;;;;5058440;28;20029;-75
2024/01/04 11:06:52;;;;;;;2.38;1.77;;;;;;;;;;5075860;28;20098;-75
2024/01/04 11:09:21;;;;;;;3.53;2.53;;;;;;;;;;5075896;28;20037;-75
2024/01/04 11:11:48;;;;;;;2.42;2.10;;;;;;;;;;5075801;28;20039;-75
2024/01/04 11:14:14;;;;;;;2.17;1.95;;;;;;;;;;5076478;28;20107;-75
2024/01/04 11:16:45;;;;;;;1.77;1.60;;;;;;;;;;5075787;28;20099;-64
2024/01/04 11:19:29;;;;;;;2.13;1.92;;;;;;;;;;5075942;28;20384;-64
2024/01/04 11:22:03;;;;;;;1.10;1.00;;;;;;;;;;5075646;28;20455;-64
2024/01/04 11:24:37;;;;;;;1.73;1.63;;;;;;;;;;5075527;28;20036;-64
2024/01/04 11:27:04;;;;;;;1.77;1.55;;;;;;;;;;5076095;28;20036;-64
2024/01/04 11:29:29;;;;;;;2.50;2.30;;;;;;;;;;5075463;28;20488;-64
2024/01/04 11:31:59;;;;;;;2.20;1.98;;;;;;;;;;5075070;28;20103;-64
2024/01/04 11:34:24;;;;;;;2.47;2.03;;;;;;;;;;5075666;28;20116;-64
2024/01/04 11:36:54;;;;;;;1.92;1.52;;;;;;;;;;5075261;28;20060;-64
2024/01/04 11:39:26;;;;;;;3.92;2.28;;;;;;;;;;5075975;28;20359;-64
2024/01/04 11:41:51;;;;;;;3.63;2.72;;;;;;;;;;5057297;28;20037;-64
2024/01/04 11:44:17;;;;;;;4.70;2.22;;;;;;;;;;5075470;28;20387;-64
2024/01/04 11:46:46;;;;;;;2.40;2.20;;;;;;;;;;5075683;28;20020;-64
2024/01/04 11:49:13;;;;;;;3.58;2.60;;;;;;;;;;5075684;28;20074;-64
2024/01/04 11:51:40;;;;;;;4.00;2.97;;;;;;;;;;5075274;28;20032;-64
2024/01/04 11:54:06;;;;;;;6.38;3.53;;;;;;;;;;5057005;28;20501;-64
2024/01/04 11:56:32;;;;;;;4.38;2.70;;;;;;;;;;5075090;28;20031;-64
2024/01/04 11:59:06;;;;;;;3.55;3.05;;;;;;;;;;5057244;28;20028;-64
2024/01/04 12:01:32;;;;;;;3.50;2.65;;;;;;;;;;5075111;28;20041;-64
2024/01/04 12:04:05;;;;;;;2.85;2.45;;;;;;;;;;5056832;28;20043;-64
2024/01/04 12:06:31;;;;;;;4.00;2.50;;;;;;;;;;5074661;28;20433;-63
2024/01/04 12:09:00;;;;;;;1.55;1.45;;;;;;;;;;5073940;28;20064;-63
2024/01/04 12:11:25;;;;;;;2.03;1.55;;;;;;;;;;5073690;28;20382;-64
2024/01/04 12:13:51;;;;;;;2.65;1.50;;;;;;;;;;5074561;28;20036;-64
2024/01/04 12:16:16;;;;;;;1.40;1.25;;;;;;;;;;5074517;28;20017;-75
2024/01/04 12:18:41;;;;;;;1.50;1.40;;;;;;;;;;5090428;22;20020;-75
2024/01/04 12:21:10;;;;;;;2.05;1.15;;;;;;;;;;5075984;22;20102;-75
2024/01/04 12:23:36;;;;;;;1.75;1.00;;;;;;;;;;5113457;22;20114;-74
2024/01/04 12:26:02;;;;;;;1.27;1.17;;;;;;;;;;5086844;22;20143;-75
2024/01/04 12:28:27;;;;;;;1.50;1.20;;;;;;;;;;5056488;28;20124;-75
2024/01/04 12:30:53;;;;;;;1.13;1.02;;;;;;;;;;5074480;28;20047;-75
2024/01/04 12:33:18;;;;;;;1.48;1.38;;;;;;;;;;5074384;28;20024;-75
2024/01/04 12:35:44;;;;;;;1.38;1.27;;;;;;;;;;5074512;28;20029;-75
2024/01/04 12:38:09;;;;;;;1.55;1.10;;;;;;;;;;5072742;28;20050;-75
2024/01/04 12:40:39;;;;;;;1.10;1.00;;;;;;;;;;5074596;28;20036;-75
2024/01/04 12:43:04;;;;;;;2.42;1.20;;;;;;;;;;5074702;28;20028;-75
2024/01/04 12:45:31;;;;;;;1.95;1.25;;;;;;;;;;5073966;28;20500;-75
2024/01/04 12:48:00;;;;;;;1.73;1.23;;;;;;;;;;5072901;28;20024;-75
2024/01/04 12:50:27;;;;;;;1.73;1.50;;;;;;;;;;5074192;28;20067;-75
2024/01/04 12:52:52;;;;;;;3.15;2.00;;;;;;;;;;5074184;28;20463;-75
2024/01/04 12:55:18;;;;;;;1.98;1.42;;;;;;;;;;5073896;28;20043;-75
2024/01/04 12:57:43;;;;;;;1.90;1.48;;;;;;;;;;5074425;28;20089;-75
2024/01/04 13:00:09;;;;;;;2.10;1.42;;;;;;;;;;5074043;28;20028;-75
2024/01/04 13:02:35;;;;;;;1.95;1.52;;;;;;;;;;5074125;28;20486;-75
2024/01/04 13:05:00;;;;;;;1.63;1.52;;;;;;;;;;5073777;28;20082;-75
2024/01/04 13:07:25;;;;;;;1.77;1.50;;;;;;;;;;5074281;28;20074;-75
2024/01/04 13:09:51;;;;;;;1.50;1.40;;;;;;;;;;5073861;28;20032;-75
2024/01/04 13:12:16;;;;;;;1.42;1.17;;;;;;;;;;5074422;28;20082;-75
2024/01/04 13:14:42;;;;;;;2.95;1.40;;;;;;;;;;5073672;28;20031;-64
2024/01/04 13:17:07;;;;;;;1.85;1.60;;;;;;;;;;5055821;28;20025;-62
2024/01/04 13:19:33;;;;;;;1.33;1.17;;;;;;;;;;5073587;28;20433;-63
2024/01/04 13:21:58;;;;;;;1.90;1.23;;;;;;;;;;5055488;28;20123;-64
2024/01/04 13:24:24;;;;;;;1.27;1.15;;;;;;;;;;5073747;28;20523;-64
2024/01/04 13:26:51;;;;;;;3.25;1.55;;;;;;;;;;5074015;28;20037;-64
2024/01/04 13:29:16;;;;;;;2.22;1.70;;;;;;;;;;5074118;28;20078;-64
2024/01/04 13:31:42;;;;;;;2.58;1.33;;;;;;;;;;5074171;28;20116;-63
2024/01/04 13:34:07;;;;;;;2.70;1.95;;;;;;;;;;5073785;28;20538;-64
2024/01/04 13:36:33;;;;;;;2.05;1.70;;;;;;;;;;5055688;28;20087;-63
2024/01/04 13:38:58;;;;;;;2.63;1.80;;;;;;;;;;5073574;28;20008;-63
2024/01/04 13:41:24;;;;;;;2.40;1.80;;;;;;;;;;5073457;28;20033;-64
2024/01/04 13:43:50;;;;;;;2.40;2.20;;;;;;;;;;5073935;28;20482;-64
2024/01/04 13:46:15;;;;;;;2.17;1.77;;;;;;;;;;5074079;28;20025;-62
2024/01/04 13:48:41;;;;;;;2.20;2.03;;;;;;;;;;5055754;28;20082;-64
2024/01/04 13:51:07;;;;;;;1.98;1.85;;;;;;;;;;5073221;28;20383;-64
2024/01/04 13:53:32;;;;;;;1.83;1.73;;;;;;;;;;5055931;28;20028;-64
2024/01/04 13:55:58;;;;;;;1.60;1.50;;;;;;;;;;5073043;28;20023;-64
2024/01/04 13:58:23;;;;;;;2.38;1.98;;;;;;;;;;5073520;28;20149;-64
2024/01/04 14:00:48;;;;;;;4.35;3.20;;;;;;;;;;5073851;28;20475;-64
2024/01/04 14:03:14;;;;;;;5.95;4.07;;;;;;;;;;5073855;28;20481;-64
2024/01/04 14:05:40;;;;;;;7.28;4.22;;;;;;;;;;5073375;28;20028;-64
2024/01/04 14:08:05;;;;;;;8.02;5.28;;;;;;;;;;5073582;28;20044;-64
2024/01/04 14:10:31;;;;;;;6.45;4.70;;;;;;;;;;5072416;28;20028;-64
2024/01/04 14:12:56;;;;;;;5.55;3.78;;;;;;;;;;5071912;28;20032;-64
2024/01/04 14:15:22;;;;;;;5.63;3.90;;;;;;;;;;5054059;28;20027;-64
2024/01/04 14:17:48;;;;;;;6.28;4.60;;;;;;;;;;5071746;28;20443;-64
2024/01/04 14:20:14;;;;;;;5.15;3.92;;;;;;;;;;5072314;28;20021;-64
2024/01/04 14:22:41;;;;;;;6.20;4.50;;;;;;;;;;5072239;28;20036;-64
2024/01/04 14:25:08;;;;;;;3.63;3.00;;;;;;;;;;5072022;28;20517;-64
2024/01/04 14:27:33;;;;;;;5.50;3.78;;;;;;;;;;5073612;28;20056;-64
2024/01/04 14:29:58;;;;;;;5.25;3.95;;;;;;;;;;5073190;28;20362;-64
2024/01/04 14:32:30;;;;;;;5.25;4.20;;;;;;;;;;5074501;28;20048;-63
2024/01/04 14:34:56;;;;;;;6.07;4.30;;;;;;;;;;5058577;28;20025;-63
2024/01/04 14:37:21;;;;;;;6.38;4.13;;;;;;;;;;5076789;28;20032;-63